createdAt,value
2018-11-03T00:00:14.071Z,30.47
2018-11-03T00:02:44.051Z,17.53
2018-11-03T00:05:13.271Z,29.63
2018-11-03T00:07:42.299Z,27.40
2018-11-03T00:10:11.318Z,24.87
2018-11-03T00:12:40.577Z,24.73
2018-11-03T00:15:09.998Z,16.67
2018-11-03T00:17:39.047Z,15.43
2018-11-03T00:20:08.576Z,23.73
2018-11-03T00:22:37.609Z,31.93
2018-11-03T00:25:07.812Z,23.33
2018-11-03T00:27:36.800Z,22.67
2018-11-03T00:30:08.749Z,27.30
2018-11-03T00:32:37.738Z,26.80
2018-11-03T00:35:06.951Z,31.10
2018-11-03T00:37:36.254Z,30.63
2018-11-03T00:40:07.468Z,21.60
2018-11-03T00:42:36.738Z,27.17
2018-11-03T00:45:07.456Z,21.30
2018-11-03T00:47:38.219Z,21.83
2018-11-03T00:50:08.305Z,20.23
2018-11-03T00:52:37.395Z,21.20
2018-11-03T00:55:07.197Z,22.80
2018-11-03T00:57:36.501Z,24.73
2018-11-03T01:00:09.459Z,24.33
2018-11-03T01:02:38.761Z,31.17
2018-11-03T01:05:08.438Z,28.57
2018-11-03T01:07:38.323Z,27.20
2018-11-03T01:10:07.392Z,27.67
2018-11-03T01:12:37.361Z,23.50
2018-11-03T01:15:08.440Z,25.73
2018-11-03T01:17:37.430Z,26.53
2018-11-03T01:20:08.502Z,27.47
2018-11-03T01:22:37.620Z,25.23
2018-11-03T01:25:07.518Z,23.97
2018-11-03T01:27:36.491Z,24.80
2018-11-03T01:30:07.454Z,29.30
2018-11-03T01:32:36.518Z,29.47
2018-11-03T01:35:06.195Z,27.73
2018-11-03T01:37:35.279Z,27.93
2018-11-03T01:40:04.456Z,26.30
2018-11-03T01:42:33.451Z,27.00
2018-11-03T01:45:02.643Z,28.73
2018-11-03T01:47:31.685Z,27.80
2018-11-03T01:50:00.663Z,26.60
2018-11-03T01:52:29.879Z,31.33
2018-11-03T01:54:58.860Z,29.17
2018-11-03T01:57:27.865Z,28.33
2018-11-03T01:59:56.822Z,23.03
2018-11-03T02:02:29.932Z,24.40
2018-11-03T02:04:58.919Z,27.80
2018-11-03T02:07:28.113Z,32.23
2018-11-03T02:09:57.452Z,34.13
2018-11-03T02:12:26.427Z,28.07
2018-11-03T02:14:55.433Z,26.07
2018-11-03T02:17:24.635Z,28.13
2018-11-03T02:19:53.995Z,25.80
2018-11-03T02:22:23.171Z,27.57
2018-11-03T02:24:52.148Z,27.17
2018-11-03T02:27:21.397Z,24.77
2018-11-03T02:29:50.571Z,27.33
2018-11-03T02:32:19.749Z,26.80
2018-11-03T02:34:48.935Z,27.57
2018-11-03T02:37:18.020Z,26.20
2018-11-03T02:39:46.977Z,26.57
2018-11-03T02:42:15.937Z,27.40
2018-11-03T02:44:44.943Z,26.37
2018-11-03T02:47:14.136Z,26.50
2018-11-03T02:49:43.130Z,25.03
2018-11-03T02:52:12.110Z,26.70
2018-11-03T02:54:41.110Z,25.73
2018-11-03T02:57:10.407Z,25.70
2018-11-03T02:59:39.457Z,25.47
2018-11-03T03:02:08.659Z,26.73
2018-11-03T03:04:37.670Z,25.13
2018-11-03T03:07:06.890Z,26.97
2018-11-03T03:09:36.085Z,26.17
2018-11-03T03:12:05.482Z,26.30
2018-11-03T03:14:34.536Z,27.47
2018-11-03T03:17:03.751Z,25.07
2018-11-03T03:19:33.089Z,25.60
2018-11-03T03:22:02.804Z,27.90
2018-11-03T03:24:31.774Z,27.00
2018-11-03T03:27:00.803Z,28.30
2018-11-03T03:29:30.466Z,28.70
2018-11-03T03:31:59.618Z,27.30
2018-11-03T03:34:28.571Z,29.03
2018-11-03T03:36:57.534Z,27.27
2018-11-03T03:39:26.500Z,28.97
2018-11-03T03:41:55.516Z,29.20
2018-11-03T03:44:24.530Z,30.50
2018-11-03T03:46:53.521Z,29.87
2018-11-03T03:49:22.760Z,29.10
2018-11-03T03:51:51.736Z,29.97
2018-11-03T03:54:20.776Z,28.00
2018-11-03T03:56:49.764Z,28.13
2018-11-03T03:59:18.826Z,29.03
2018-11-03T04:01:47.815Z,28.77
2018-11-03T04:04:17.014Z,27.73
2018-11-03T04:06:46.051Z,27.80
2018-11-03T04:09:15.033Z,26.53
2018-11-03T04:11:44.024Z,27.83
2018-11-03T04:14:13.010Z,29.23
2018-11-03T04:16:41.998Z,27.73
2018-11-03T04:19:11.268Z,28.67
2018-11-03T04:21:40.469Z,27.57
2018-11-03T04:24:09.790Z,27.53
2018-11-03T04:26:38.903Z,28.10
2018-11-03T04:29:07.990Z,26.13
2018-11-03T04:31:36.994Z,28.77
2018-11-03T04:34:05.999Z,26.37
2018-11-03T04:36:35.258Z,25.53
2018-11-03T04:39:05.201Z,30.03
2018-11-03T04:41:34.169Z,29.50
2018-11-03T04:44:03.152Z,28.23
2018-11-03T04:46:32.147Z,30.23
2018-11-03T04:49:01.132Z,27.23
2018-11-03T04:51:31.766Z,28.73
2018-11-03T04:54:00.791Z,27.40
2018-11-03T04:56:29.825Z,26.73
2018-11-03T04:58:59.139Z,26.57
2018-11-03T05:01:28.368Z,26.77
2018-11-03T05:03:57.391Z,27.87
2018-11-03T05:06:26.362Z,27.03
2018-11-03T05:08:55.356Z,27.77
2018-11-03T05:11:24.334Z,28.73
2018-11-03T05:13:53.310Z,28.03
2018-11-03T05:16:22.507Z,26.97
2018-11-03T05:18:51.497Z,30.83
2018-11-03T05:21:20.792Z,32.03
2018-11-03T05:23:49.902Z,28.00
2018-11-03T05:26:19.116Z,29.53
2018-11-03T05:28:48.461Z,28.43
2018-11-03T05:31:17.502Z,28.23
2018-11-03T05:33:46.430Z,28.37
2018-11-03T05:36:15.458Z,28.80
2018-11-03T05:38:44.664Z,31.53
2018-11-03T05:41:13.709Z,29.40
2018-11-03T05:43:42.893Z,33.63
2018-11-03T05:46:12.175Z,30.00
2018-11-03T05:48:41.122Z,31.43
2018-11-03T05:51:10.786Z,30.93
2018-11-03T05:53:39.750Z,30.77
2018-11-03T05:56:08.940Z,29.70
2018-11-03T05:58:37.923Z,30.33
2018-11-03T06:01:07.151Z,28.57
2018-11-03T06:03:36.345Z,30.30
2018-11-03T06:06:05.342Z,29.10
2018-11-03T06:08:34.364Z,29.60
2018-11-03T06:11:03.614Z,31.80
2018-11-03T06:13:33.063Z,30.20
2018-11-03T06:16:02.097Z,28.20
2018-11-03T06:18:31.370Z,30.87
2018-11-03T06:21:00.650Z,30.33
2018-11-03T06:23:29.950Z,31.43
2018-11-03T06:25:58.945Z,29.33
2018-11-03T06:28:28.158Z,31.70
2018-11-03T06:30:57.163Z,31.20
2018-11-03T06:33:26.134Z,31.90
2018-11-03T06:35:55.494Z,31.03
2018-11-03T06:38:24.820Z,31.83
2018-11-03T06:40:53.804Z,30.90
2018-11-03T06:43:22.952Z,32.00
2018-11-03T06:45:52.188Z,31.50
2018-11-03T06:48:21.191Z,31.63
2018-11-03T06:50:50.384Z,32.23
2018-11-03T06:53:19.718Z,30.50
2018-11-03T06:55:48.713Z,31.03
2018-11-03T06:58:17.708Z,32.07
2018-11-03T07:00:46.905Z,31.10
2018-11-03T07:03:15.875Z,32.37
2018-11-03T07:05:44.886Z,30.70
2018-11-03T07:08:13.879Z,32.30
2018-11-03T07:10:42.896Z,31.57
2018-11-03T07:13:12.009Z,32.40
2018-11-03T07:15:40.893Z,32.30
2018-11-03T07:18:09.971Z,31.73
2018-11-03T07:20:38.934Z,33.00
2018-11-03T07:23:07.937Z,32.17
2018-11-03T07:25:36.988Z,32.87
2018-11-03T07:28:06.753Z,31.20
2018-11-03T07:30:35.743Z,32.93
2018-11-03T07:33:04.852Z,31.97
2018-11-03T07:35:33.945Z,33.20
2018-11-03T07:38:03.003Z,33.17
2018-11-03T07:40:31.993Z,30.00
2018-11-03T07:43:01.219Z,32.37
2018-11-03T07:45:30.344Z,31.27
2018-11-03T07:47:59.332Z,32.87
2018-11-03T07:50:28.511Z,34.40
2018-11-03T07:52:57.495Z,30.53
2018-11-03T07:55:26.678Z,32.90
2018-11-03T07:57:55.665Z,30.30
2018-11-03T08:00:24.674Z,33.77
2018-11-03T08:02:53.848Z,32.70
2018-11-03T08:05:23.094Z,34.63
2018-11-03T08:07:52.334Z,32.67
2018-11-03T08:10:21.359Z,32.10
2018-11-03T08:12:50.324Z,33.23
2018-11-03T08:15:19.375Z,33.77
2018-11-03T08:17:48.561Z,32.80
2018-11-03T08:20:17.762Z,31.97
2018-11-03T08:22:47.439Z,32.63
2018-11-03T08:25:16.434Z,33.37
2018-11-03T08:27:52.005Z,33.30
2018-11-03T08:30:21.005Z,32.50
2018-11-03T08:32:50.001Z,31.33
2018-11-03T08:35:19.013Z,34.83
2018-11-03T08:37:48.227Z,32.70
2018-11-03T08:40:17.246Z,33.17
2018-11-03T08:42:46.240Z,32.43
2018-11-03T08:45:15.349Z,31.90
2018-11-03T08:47:44.319Z,29.63
2018-11-03T08:50:13.793Z,30.37
2018-11-03T08:52:43.603Z,29.40
2018-11-03T08:55:13.485Z,29.73
2018-11-03T08:57:42.893Z,26.37
2018-11-03T09:00:13.928Z,26.60
2018-11-03T09:02:43.360Z,32.83
2018-11-03T09:05:12.828Z,27.77
2018-11-03T09:07:41.933Z,31.83
2018-11-03T09:10:12.918Z,32.80
2018-11-03T09:12:42.058Z,31.77
2018-11-03T09:15:12.604Z,32.80
2018-11-03T09:17:42.441Z,28.80
2018-11-03T09:20:12.522Z,28.93
2018-11-03T09:22:41.780Z,33.40
2018-11-03T09:25:12.258Z,28.37
2018-11-03T09:27:42.286Z,26.20
2018-11-03T09:30:15.205Z,23.93
2018-11-03T09:32:44.304Z,28.33
2018-11-03T09:35:14.335Z,30.37
2018-11-03T09:37:43.335Z,30.03
2018-11-03T09:40:14.175Z,28.30
2018-11-03T09:42:44.119Z,28.43
2018-11-03T09:45:13.512Z,25.40
2018-11-03T09:47:43.163Z,27.37
2018-11-03T09:50:13.648Z,25.43
2018-11-03T09:52:43.036Z,24.27
2018-11-03T09:55:15.304Z,26.50
2018-11-03T09:57:44.385Z,23.57
2018-11-03T10:00:15.642Z,23.20
2018-11-03T10:02:44.681Z,21.40
2018-11-03T10:05:14.504Z,20.60
2018-11-03T10:07:50.306Z,22.20
2018-11-03T10:10:20.118Z,19.57
2018-11-03T10:12:49.647Z,19.40
2018-11-03T10:15:19.509Z,20.10
2018-11-03T10:17:48.506Z,19.23
2018-11-03T10:20:17.725Z,17.73
2018-11-03T10:22:46.799Z,20.30
2018-11-03T10:25:18.050Z,20.23
2018-11-03T10:27:47.436Z,19.53
2018-11-03T10:30:17.046Z,18.30
2018-11-03T10:32:46.383Z,17.83
2018-11-03T10:35:15.644Z,19.00
2018-11-03T10:37:45.047Z,16.40
2018-11-03T10:40:15.382Z,16.97
2018-11-03T10:42:44.782Z,13.90
2018-11-03T10:45:15.303Z,16.10
2018-11-03T10:47:44.497Z,16.37
2018-11-03T10:50:16.093Z,15.00
2018-11-03T10:52:45.970Z,12.13
2018-11-03T10:55:16.255Z,11.33
2018-11-03T10:57:45.493Z,11.93
2018-11-03T11:00:23.468Z,12.43
2018-11-03T11:02:58.277Z,11.73
2018-11-03T11:05:33.334Z,11.73
2018-11-03T11:08:07.658Z,11.50
2018-11-03T11:10:41.856Z,13.43
2018-11-03T11:13:16.844Z,13.00
2018-11-03T11:15:45.974Z,13.40
2018-11-03T11:18:15.034Z,10.27
2018-11-03T11:20:45.089Z,11.17
2018-11-03T11:23:14.882Z,10.53
2018-11-03T11:25:43.932Z,11.50
2018-11-03T11:28:12.973Z,10.57
2018-11-03T11:30:43.229Z,10.07
2018-11-03T11:33:13.650Z,12.43
2018-11-03T11:35:42.823Z,11.50
2018-11-03T11:38:12.695Z,10.23
2018-11-03T11:40:41.978Z,11.00
2018-11-03T11:43:12.353Z,9.00
2018-11-03T11:45:41.265Z,9.33
2018-11-03T11:48:10.438Z,9.57
2018-11-03T11:50:39.493Z,11.20
2018-11-03T11:53:08.545Z,11.30
2018-11-03T11:55:37.755Z,10.90
2018-11-03T11:58:07.236Z,11.23
2018-11-03T12:00:36.452Z,10.93
2018-11-03T12:03:05.769Z,10.27
2018-11-03T12:05:34.771Z,11.63
2018-11-03T12:08:03.980Z,10.63
2018-11-03T12:12:52.583Z,10.10
2018-11-03T12:15:21.626Z,10.33
2018-11-03T12:17:50.643Z,10.70
2018-11-03T12:20:19.966Z,10.00
2018-11-03T12:22:49.454Z,10.00
2018-11-03T12:25:18.511Z,10.33
2018-11-03T12:27:47.475Z,9.10
2018-11-03T12:30:16.446Z,10.73
2018-11-03T12:32:46.031Z,9.37
2018-11-03T12:35:15.023Z,8.87
2018-11-03T12:37:44.006Z,9.73
2018-11-03T12:40:15.452Z,9.67
2018-11-03T12:42:44.428Z,10.63
2018-11-03T12:45:13.694Z,10.93
2018-11-03T12:47:42.888Z,10.37
2018-11-03T12:50:14.377Z,11.33
2018-11-03T12:52:43.451Z,9.47
2018-11-03T12:55:12.697Z,9.97
2018-11-03T12:57:42.326Z,9.90
2018-11-03T13:00:13.420Z,9.23
2018-11-03T13:02:43.179Z,10.27
2018-11-03T13:05:12.255Z,10.07
2018-11-03T13:07:42.642Z,9.17
2018-11-03T13:10:11.990Z,8.67
2018-11-03T13:12:41.656Z,8.30
2018-11-03T13:15:11.705Z,8.50
2018-11-03T13:17:40.810Z,9.07
2018-11-03T13:20:11.900Z,9.27
2018-11-03T13:22:41.534Z,9.47
2018-11-03T13:25:11.387Z,7.83
2018-11-03T13:27:41.079Z,8.73
2018-11-03T13:30:12.306Z,7.20
2018-11-03T13:32:41.339Z,8.10
2018-11-03T13:35:11.955Z,7.10
2018-11-03T13:37:41.126Z,8.37
2018-11-03T13:40:11.855Z,7.43
2018-11-03T13:42:40.890Z,7.77
2018-11-03T13:45:10.551Z,8.40
2018-11-03T13:47:40.357Z,8.23
2018-11-03T13:50:16.538Z,7.30
2018-11-03T13:52:46.937Z,7.87
2018-11-03T13:55:15.971Z,8.03
2018-11-03T13:57:46.492Z,8.00
2018-11-03T14:00:16.768Z,7.10
2018-11-03T14:02:46.470Z,6.93
2018-11-03T14:05:15.561Z,6.93
2018-11-03T14:07:44.736Z,6.00
2018-11-03T14:10:15.737Z,6.07
2018-11-03T14:12:45.567Z,6.13
2018-11-03T14:15:15.955Z,6.77
2018-11-03T14:17:44.903Z,6.60
2018-11-03T14:20:14.935Z,6.50
2018-11-03T14:22:44.700Z,6.03
2018-11-03T14:25:14.834Z,6.60
2018-11-03T14:27:45.072Z,6.67
2018-11-03T14:30:14.453Z,6.03
2018-11-03T14:32:44.010Z,6.70
2018-11-03T14:35:13.765Z,6.53
2018-11-03T14:37:43.090Z,6.17
2018-11-03T14:40:14.255Z,6.77
2018-11-03T14:42:44.226Z,6.40
2018-11-03T14:45:14.286Z,5.83
2018-11-03T14:47:43.482Z,5.97
2018-11-03T14:50:12.483Z,6.27
2018-11-03T14:52:42.449Z,6.10
2018-11-03T14:55:12.162Z,6.63
2018-11-03T14:57:41.164Z,5.87
2018-11-03T15:00:15.056Z,6.10
2018-11-03T15:02:44.026Z,5.50
2018-11-03T15:05:13.463Z,6.37
2018-11-03T15:07:42.690Z,6.07
2018-11-03T15:10:12.453Z,5.90
2018-11-03T15:12:42.615Z,5.60
2018-11-03T15:15:13.922Z,4.97
2018-11-03T15:17:43.148Z,4.40
2018-11-03T15:20:12.643Z,4.57
2018-11-03T15:22:42.369Z,5.37
2018-11-03T15:25:11.673Z,6.50
2018-11-03T15:27:41.452Z,5.63
2018-11-03T15:30:12.102Z,5.77
2018-11-03T15:32:41.918Z,6.77
2018-11-03T15:35:11.854Z,5.40
2018-11-03T15:37:40.826Z,5.47
2018-11-03T15:40:12.426Z,5.03
2018-11-03T15:42:42.091Z,5.10
2018-11-03T15:45:13.400Z,5.10
2018-11-03T15:47:43.375Z,5.60
2018-11-03T15:50:13.531Z,6.20
2018-11-03T15:52:43.117Z,6.30
2018-11-03T15:55:12.087Z,5.93
2018-11-03T15:57:41.383Z,5.60
2018-11-03T16:00:15.217Z,5.80
2018-11-03T16:02:44.310Z,6.67
2018-11-03T16:05:13.483Z,6.67
2018-11-03T16:07:43.197Z,6.60
2018-11-03T16:10:12.431Z,6.73
2018-11-03T16:12:41.516Z,6.47
2018-11-03T16:15:11.822Z,7.17
2018-11-03T16:17:41.517Z,6.80
2018-11-03T16:20:11.631Z,7.67
2018-11-03T16:22:41.127Z,7.10
2018-11-03T16:25:10.824Z,7.00
2018-11-03T16:27:40.171Z,7.23
2018-11-03T16:30:13.291Z,8.13
2018-11-03T16:32:42.955Z,7.70
2018-11-03T16:35:11.857Z,7.17
2018-11-03T16:37:41.262Z,7.23
2018-11-03T16:40:12.214Z,7.07
2018-11-03T16:42:41.747Z,8.17
2018-11-03T16:45:13.052Z,7.40
2018-11-03T16:47:42.493Z,7.63
2018-11-03T16:50:12.938Z,7.97
2018-11-03T16:52:42.674Z,7.67
2018-11-03T16:55:12.769Z,7.57
2018-11-03T16:57:41.819Z,7.97
2018-11-03T17:00:13.375Z,8.57
2018-11-03T17:02:42.665Z,9.20
2018-11-03T17:05:13.314Z,8.43
2018-11-03T17:07:42.301Z,9.37
2018-11-03T17:10:13.659Z,9.03
2018-11-03T17:12:44.267Z,9.03
2018-11-03T17:15:14.080Z,9.33
2018-11-03T17:17:43.079Z,11.03
2018-11-03T17:20:12.720Z,9.50
2018-11-03T17:22:41.707Z,10.10
2018-11-03T17:25:11.764Z,8.50
2018-11-03T17:27:40.754Z,10.10
2018-11-03T17:30:12.767Z,9.90
2018-11-03T17:32:41.992Z,10.73
2018-11-03T17:35:11.553Z,9.13
2018-11-03T17:37:40.779Z,11.00
2018-11-03T17:40:10.518Z,9.67
2018-11-03T17:42:39.582Z,11.10
2018-11-03T17:45:10.277Z,10.30
2018-11-03T17:47:39.609Z,9.10
2018-11-03T17:50:11.253Z,10.90
2018-11-03T17:52:40.565Z,8.70
2018-11-03T17:55:09.947Z,9.63
2018-11-03T17:57:39.378Z,9.40
2018-11-03T18:00:12.821Z,8.97
2018-11-03T18:02:42.489Z,10.17
2018-11-03T18:05:11.626Z,9.93
2018-11-03T18:07:40.852Z,9.03
2018-11-03T18:10:11.615Z,9.63
2018-11-03T18:12:41.428Z,21.23
2018-11-03T18:15:10.923Z,11.50
2018-11-03T18:17:40.738Z,10.73
2018-11-03T18:20:10.386Z,22.57
2018-11-03T18:22:39.781Z,33.83
2018-11-03T18:25:09.282Z,47.73
2018-11-03T18:27:38.685Z,12.53
2018-11-03T18:30:09.699Z,11.03
2018-11-03T18:32:39.144Z,11.63
2018-11-03T18:35:08.523Z,11.37
2018-11-03T18:37:37.854Z,10.40
2018-11-03T18:40:07.960Z,11.03
2018-11-03T18:42:38.310Z,12.00
2018-11-03T18:45:07.777Z,11.67
2018-11-03T18:47:37.027Z,10.90
2018-11-03T18:50:09.861Z,15.23
2018-11-03T18:52:38.922Z,16.47
2018-11-03T18:55:08.790Z,23.43
2018-11-03T18:57:38.134Z,15.10
2018-11-03T19:00:07.881Z,11.07
2018-11-03T19:02:37.266Z,13.57
2018-11-03T19:05:06.782Z,12.90
2018-11-03T19:07:36.394Z,15.00
2018-11-03T19:10:06.498Z,21.63
2018-11-03T19:12:35.479Z,13.47
2018-11-03T19:15:04.758Z,14.97
2018-11-03T19:17:34.076Z,15.93
2018-11-03T19:20:03.090Z,19.73
2018-11-03T19:22:32.462Z,17.50
2018-11-03T19:25:01.769Z,19.67
2018-11-03T19:27:30.973Z,16.50
2018-11-03T19:30:00.289Z,50.40
2018-11-03T19:32:29.599Z,19.53
2018-11-03T19:34:58.546Z,18.40
2018-11-03T19:37:27.791Z,17.57
2018-11-03T19:39:57.024Z,18.67
2018-11-03T19:42:26.175Z,19.53
2018-11-03T19:44:55.202Z,21.50
2018-11-03T19:47:24.202Z,20.37
2018-11-03T19:49:53.429Z,32.53
2018-11-03T19:52:22.447Z,23.73
2018-11-03T19:54:51.482Z,21.73
2018-11-03T19:57:21.091Z,68.23
2018-11-03T19:59:50.110Z,21.47
2018-11-03T20:02:19.130Z,42.20
2018-11-03T20:04:48.219Z,151.03
2018-11-03T20:07:17.222Z,31.10
2018-11-03T20:09:46.459Z,19.13
2018-11-03T20:12:15.443Z,20.20
2018-11-03T20:14:44.706Z,27.53
2018-11-03T20:17:13.732Z,24.33
2018-11-03T20:19:42.965Z,20.07
2018-11-03T20:22:11.954Z,89.20
2018-11-03T20:24:41.011Z,27.00
2018-11-03T20:27:10.052Z,61.20
2018-11-03T20:29:39.066Z,28.83
2018-11-03T20:32:08.070Z,21.90
2018-11-03T20:34:37.222Z,18.33
2018-11-03T20:37:06.331Z,38.10
2018-11-03T20:39:35.585Z,20.43
2018-11-03T20:42:05.074Z,18.63
2018-11-03T20:44:34.362Z,20.07
2018-11-03T20:47:03.570Z,17.73
2018-11-03T20:49:32.848Z,16.77
2018-11-03T20:52:02.842Z,16.40
2018-11-03T20:54:31.936Z,17.73
2018-11-03T20:57:01.212Z,15.20
2018-11-03T20:59:30.503Z,15.37
2018-11-03T21:01:59.897Z,18.50
2018-11-03T21:04:29.176Z,20.87
2018-11-03T21:06:58.221Z,17.33
2018-11-03T21:09:27.234Z,19.27
2018-11-03T21:11:56.280Z,17.33
2018-11-03T21:14:25.570Z,18.60
2018-11-03T21:17:00.697Z,18.50
2018-11-03T21:19:29.680Z,20.07
2018-11-03T21:21:58.686Z,17.57
2018-11-03T21:24:27.946Z,18.73
2018-11-03T21:26:57.558Z,17.63
2018-11-03T21:29:26.769Z,18.60
2018-11-03T21:31:55.866Z,18.77
2018-11-03T21:34:24.840Z,16.67
2018-11-03T21:36:53.889Z,19.40
2018-11-03T21:39:23.499Z,18.50
2018-11-03T21:41:52.847Z,22.80
2018-11-03T21:44:22.253Z,19.83
2018-11-03T21:46:51.824Z,19.67
2018-11-03T21:49:20.880Z,20.37
2018-11-03T21:51:49.949Z,20.90
2018-11-03T21:54:21.374Z,18.93
2018-11-03T21:56:50.507Z,19.57
2018-11-03T21:59:19.566Z,18.17
2018-11-03T22:01:48.851Z,19.47
2018-11-03T22:04:18.438Z,20.70
2018-11-03T22:06:47.452Z,20.40
2018-11-03T22:09:16.442Z,19.53
2018-11-03T22:11:45.612Z,18.37
2018-11-03T22:14:14.991Z,21.03
2018-11-03T22:16:44.059Z,18.70
2018-11-03T22:19:13.138Z,18.83
2018-11-03T22:21:42.493Z,23.00
2018-11-03T22:24:11.485Z,18.50
2018-11-03T22:26:40.560Z,18.93
2018-11-03T22:29:09.878Z,18.77
2018-11-03T22:31:39.163Z,18.03
2018-11-03T22:34:08.237Z,18.63
2018-11-03T22:36:37.643Z,19.37
2018-11-03T22:39:09.129Z,18.43
2018-11-03T22:41:38.770Z,19.53
2018-11-03T22:44:07.839Z,17.27
2018-11-03T22:46:37.095Z,24.67
2018-11-03T22:49:06.078Z,17.93
2018-11-03T22:51:35.414Z,20.97
2018-11-03T22:54:05.090Z,17.50
2018-11-03T22:56:34.282Z,20.00
2018-11-03T22:59:03.886Z,19.20
2018-11-03T23:01:32.930Z,19.80
2018-11-03T23:04:02.299Z,18.83
2018-11-03T23:06:31.521Z,19.80
2018-11-03T23:09:00.604Z,19.27
2018-11-03T23:11:29.631Z,23.00
2018-11-03T23:13:58.640Z,21.60
2018-11-03T23:16:27.937Z,25.53
2018-11-03T23:18:57.159Z,20.87
2018-11-03T23:21:26.139Z,21.43
2018-11-03T23:23:55.461Z,21.40
2018-11-03T23:26:25.085Z,24.67
2018-11-03T23:28:54.329Z,20.63
2018-11-03T23:31:23.689Z,21.47
2018-11-03T23:33:52.645Z,21.70
2018-11-03T23:36:21.638Z,21.33
2018-11-03T23:38:50.757Z,21.47
2018-11-03T23:41:19.736Z,22.17
2018-11-03T23:43:48.741Z,24.43
2018-11-03T23:46:18.105Z,22.53
2018-11-03T23:48:47.154Z,23.27
2018-11-03T23:51:16.119Z,23.13
2018-11-03T23:53:45.090Z,21.10
2018-11-03T23:56:14.165Z,25.67
2018-11-03T23:58:43.185Z,22.60
